Time;durP1;ratioP1;P1;durP2;ratioP2;P2;SDS_P1;SDS_P2;PMS_P1;PMS_P2;Temp;Humidity;BMP_temperature;BMP_pressure;BME280_temperature;BME280_humidity;BME280_pressure;Samples;Min_cycle;Max_cycle;Signal;HPM_P1;HPM_P2
2021/05/30 00:01:29;;;;;;;1.52;0.60;;;13.60;75.90;;;;;;4893914;29;20055;-65
2021/05/30 00:03:56;;;;;;;2.50;0.98;;;13.50;76.40;;;;;;4895215;29;20673;-65
2021/05/30 00:06:23;;;;;;;1.90;0.70;;;13.50;76.90;;;;;;4894619;29;20052;-65
2021/05/30 00:08:53;;;;;;;1.67;0.70;;;13.40;77.20;;;;;;4895048;29;20037;-65
2021/05/30 00:11:21;;;;;;;3.25;0.90;;;13.40;78.00;;;;;;4883853;29;20052;-65
2021/05/30 00:14:03;;;;;;;3.15;1.02;;;13.40;77.90;;;;;;4892217;29;20053;-64
2021/05/30 00:16:30;;;;;;;2.05;0.70;;;13.40;78.00;;;;;;4892259;29;20565;-65
2021/05/30 00:18:59;;;;;;;1.70;0.75;;;13.40;77.90;;;;;;4892885;29;20107;-65
2021/05/30 00:21:27;;;;;;;2.28;1.08;;;13.40;77.50;;;;;;4879283;29;20401;-65
2021/05/30 00:23:54;;;;;;;2.35;0.80;;;13.40;77.50;;;;;;4893439;29;20113;-64
2021/05/30 00:26:21;;;;;;;2.30;0.75;;;13.40;77.20;;;;;;4877201;29;20094;-65
2021/05/30 00:28:48;;;;;;;1.55;0.70;;;13.50;77.30;;;;;;4887657;29;20052;-65
2021/05/30 00:31:15;;;;;;;2.53;0.60;;;13.50;78.20;;;;;;4894994;29;20067;-65
2021/05/30 00:33:42;;;;;;;2.60;0.77;;;13.40;78.10;;;;;;4894941;29;20056;-65
2021/05/30 00:36:09;;;;;;;2.60;0.90;;;13.30;78.80;;;;;;4895003;29;20116;-65
2021/05/30 00:38:36;;;;;;;2.75;1.25;;;13.20;78.80;;;;;;4892851;29;20044;-64
2021/05/30 00:41:03;;;;;;;1.08;0.70;;;13.20;79.50;;;;;;4876714;29;20049;-64
2021/05/30 00:43:30;;;;;;;1.90;0.70;;;13.10;79.90;;;;;;4894541;29;20397;-64
2021/05/30 00:45:57;;;;;;;1.63;0.85;;;13.10;79.80;;;;;;4889190;29;20535;-64
2021/05/30 00:48:24;;;;;;;1.52;0.50;;;13.10;79.90;;;;;;4892786;29;20044;-65
2021/05/30 00:50:51;;;;;;;1.75;1.10;;;13.10;80.10;;;;;;4894966;29;20063;-65
2021/05/30 00:53:18;;;;;;;1.25;0.43;;;13.20;80.20;;;;;;4896507;29;20109;-64
2021/05/30 00:55:47;;;;;;;1.67;0.60;;;13.10;79.90;;;;;;4895032;29;20044;-64
2021/05/30 00:58:15;;;;;;;2.30;1.25;;;13.20;79.50;;;;;;4890613;29;20040;-65
2021/05/30 01:00:42;;;;;;;2.17;1.00;;;13.20;79.10;;;;;;4893290;29;20052;-64
2021/05/30 01:03:09;;;;;;;1.88;0.77;;;13.20;79.30;;;;;;4894257;29;20476;-64
2021/05/30 01:05:36;;;;;;;2.10;0.52;;;13.20;79.50;;;;;;4896010;29;20392;-65
2021/05/30 01:08:03;;;;;;;2.47;1.45;;;13.20;79.30;;;;;;4896399;29;20100;-65
2021/05/30 01:10:34;;;;;;;2.72;0.70;;;13.10;79.40;;;;;;4895472;29;20056;-65
2021/05/30 01:13:03;;;;;;;4.05;0.80;;;13.10;79.50;;;;;;4875102;29;20404;-65
2021/05/30 01:15:33;;;;;;;2.55;0.88;;;13.00;80.00;;;;;;4887619;29;20049;-65
2021/05/30 01:18:01;;;;;;;1.75;0.50;;;13.00;80.00;;;;;;4892955;29;20139;-65
2021/05/30 01:20:28;;;;;;;1.52;0.77;;;12.90;80.70;;;;;;4893167;29;20073;-65
2021/05/30 01:22:55;;;;;;;1.45;0.60;;;12.90;80.20;;;;;;4892128;29;20056;-65
2021/05/30 01:25:25;;;;;;;1.77;0.90;;;12.90;80.50;;;;;;4894878;29;20048;-65
2021/05/30 01:27:53;;;;;;;2.00;0.60;;;12.90;80.60;;;;;;4898623;29;20048;-65
2021/05/30 01:30:22;;;;;;;1.73;0.63;;;12.90;80.60;;;;;;4896831;29;20051;-65
2021/05/30 01:32:50;;;;;;;2.63;0.80;;;12.80;80.80;;;;;;4895950;29;20055;-65
2021/05/30 01:35:18;;;;;;;2.35;0.80;;;12.80;80.40;;;;;;4897549;29;20040;-65
2021/05/30 01:37:46;;;;;;;3.28;0.90;;;12.80;80.80;;;;;;4892421;29;20411;-65
2021/05/30 01:40:14;;;;;;;2.17;0.50;;;12.70;81.10;;;;;;4889836;29;20044;-65
2021/05/30 01:42:41;;;;;;;1.88;0.70;;;12.70;81.40;;;;;;4895396;29;20441;-65
2021/05/30 01:45:09;;;;;;;1.83;0.73;;;12.60;81.20;;;;;;4895711;29;20048;-65
2021/05/30 01:47:38;;;;;;;1.77;0.77;;;12.60;81.60;;;;;;4896311;29;20128;-65
2021/05/30 01:50:09;;;;;;;2.60;0.85;;;12.60;81.90;;;;;;4899724;29;20068;-64
2021/05/30 01:52:36;;;;;;;2.70;0.73;;;12.50;82.20;;;;;;4894245;29;20116;-65
2021/05/30 01:55:06;;;;;;;1.88;0.70;;;12.50;82.00;;;;;;4873285;29;20040;-65
2021/05/30 01:57:44;;;;;;;2.65;0.80;;;12.50;82.20;;;;;;4896762;29;20048;-65
2021/05/30 02:00:13;;;;;;;1.23;0.65;;;12.50;82.80;;;;;;4895022;29;20117;-64
2021/05/30 02:02:45;;;;;;;1.42;0.60;;;12.40;83.00;;;;;;4899212;29;20041;-64
2021/05/30 02:05:12;;;;;;;3.65;1.35;;;12.40;82.40;;;;;;4895734;29;20052;-64
2021/05/30 02:07:40;;;;;;;2.47;0.85;;;12.40;82.80;;;;;;4890840;29;20552;-64
2021/05/30 02:10:13;;;;;;;3.47;0.95;;;12.40;82.80;;;;;;4895884;29;20056;-65
2021/05/30 02:12:41;;;;;;;;;;;12.40;83.20;;;;;;4897981;29;20397;-65
2021/05/30 02:15:09;;;;;;;1.75;0.80;;;12.40;82.90;;;;;;4894266;29;19934;-65
2021/05/30 02:17:36;;;;;;;1.23;0.73;;;12.40;82.60;;;;;;4895595;29;20048;-65
2021/05/30 02:20:05;;;;;;;1.45;0.40;;;12.40;83.00;;;;;;4896594;29;20052;-65
2021/05/30 02:22:32;;;;;;;3.72;0.77;;;12.30;83.60;;;;;;4885794;29;20124;-65
2021/05/30 02:25:00;;;;;;;2.65;1.02;;;12.30;83.80;;;;;;4873282;29;20408;-65
2021/05/30 02:27:27;;;;;;;1.02;0.68;;;12.30;83.90;;;;;;4895117;29;20048;-65
2021/05/30 02:29:56;;;;;;;2.47;1.10;;;12.20;84.00;;;;;;4894936;29;20041;-64
2021/05/30 02:32:23;;;;;;;2.30;0.75;;;12.20;84.40;;;;;;4885136;29;20052;-64
2021/05/30 02:34:50;;;;;;;1.85;0.88;;;12.20;84.30;;;;;;4896815;29;20051;-64
2021/05/30 02:37:18;;;;;;;2.40;0.70;;;12.20;83.90;;;;;;4891556;29;20079;-65
2021/05/30 02:39:45;;;;;;;1.73;0.82;;;12.20;83.80;;;;;;4893575;29;20045;-65
2021/05/30 02:42:13;;;;;;;1.85;1.10;;;12.20;83.30;;;;;;4887812;29;20084;-65
2021/05/30 02:44:40;;;;;;;2.78;0.77;;;12.10;82.80;;;;;;4895790;29;20096;-65
2021/05/30 02:47:08;;;;;;;2.85;1.00;;;12.10;84.00;;;;;;4897640;29;20093;-65
2021/05/30 02:49:35;;;;;;;1.67;0.85;;;12.10;83.40;;;;;;4896271;29;20097;-65
2021/05/30 02:52:03;;;;;;;1.92;0.90;;;12.10;83.70;;;;;;4897083;29;20092;-65
2021/05/30 02:54:32;;;;;;;5.63;1.30;;;12.00;83.70;;;;;;4895706;29;20048;-65
2021/05/30 02:56:59;;;;;;;2.08;0.90;;;12.00;84.20;;;;;;4909439;29;20073;-65
2021/05/30 02:59:26;;;;;;;2.40;1.00;;;12.00;83.80;;;;;;4896792;29;20044;-65
2021/05/30 03:01:53;;;;;;;2.13;0.93;;;12.00;83.50;;;;;;4894745;29;20051;-65
2021/05/30 03:04:20;;;;;;;1.85;0.90;;;12.00;84.40;;;;;;4895856;29;20056;-65
2021/05/30 03:06:47;;;;;;;1.73;0.75;;;12.00;83.80;;;;;;4895935;29;20048;-65
2021/05/30 03:09:14;;;;;;;3.25;1.33;;;12.00;84.00;;;;;;4894792;29;20044;-65
2021/05/30 03:11:41;;;;;;;2.15;1.10;;;12.00;84.20;;;;;;4892661;29;20049;-67
2021/05/30 03:14:08;;;;;;;2.10;0.85;;;12.00;84.50;;;;;;4879354;29;20071;-65
2021/05/30 03:16:35;;;;;;;1.75;1.05;;;12.00;84.50;;;;;;4895408;29;20037;-65
2021/05/30 03:19:03;;;;;;;2.03;1.08;;;12.00;84.70;;;;;;4896577;29;20056;-65
2021/05/30 03:21:30;;;;;;;4.00;1.08;;;12.00;85.00;;;;;;4894866;29;20052;-65
2021/05/30 03:23:57;;;;;;;2.58;1.00;;;11.90;84.80;;;;;;4894145;29;20056;-65
2021/05/30 03:26:24;;;;;;;2.10;1.05;;;11.90;85.10;;;;;;4895671;29;20104;-65
2021/05/30 03:28:51;;;;;;;2.08;1.05;;;11.90;84.90;;;;;;4895596;29;20057;-65
2021/05/30 03:31:18;;;;;;;2.20;1.10;;;12.00;84.90;;;;;;4893247;29;20104;-65
2021/05/30 03:33:45;;;;;;;2.05;0.95;;;11.90;85.10;;;;;;4893239;29;20053;-65
2021/05/30 03:36:17;;;;;;;1.77;0.90;;;12.00;84.90;;;;;;4896371;29;20068;-65
2021/05/30 03:38:45;;;;;;;2.72;0.80;;;12.00;85.40;;;;;;4885265;29;20518;-65
2021/05/30 03:41:14;;;;;;;3.30;1.25;;;12.00;85.60;;;;;;4893329;29;20079;-65
2021/05/30 03:43:41;;;;;;;2.08;1.10;;;12.00;85.10;;;;;;4894645;29;20052;-65
2021/05/30 03:46:08;;;;;;;4.35;1.15;;;12.10;85.40;;;;;;4893769;29;20425;-65
2021/05/30 03:48:36;;;;;;;2.85;1.10;;;12.10;85.90;;;;;;4892938;29;20128;-65
2021/05/30 03:51:03;;;;;;;3.53;1.05;;;12.10;86.40;;;;;;4892830;29;20084;-65
2021/05/30 03:53:30;;;;;;;2.95;1.27;;;12.20;86.70;;;;;;4894078;29;20519;-65
2021/05/30 03:55:57;;;;;;;3.58;1.05;;;12.20;86.20;;;;;;4897335;29;20461;-64
2021/05/30 03:58:24;;;;;;;2.13;1.20;;;12.30;86.60;;;;;;4900790;29;20036;-65
2021/05/30 04:00:51;;;;;;;2.22;0.73;;;12.40;86.80;;;;;;4891122;29;20100;-65
2021/05/30 04:03:18;;;;;;;2.00;1.27;;;12.40;86.30;;;;;;4894893;29;20044;-65
2021/05/30 04:05:45;;;;;;;1.77;0.95;;;12.50;86.80;;;;;;4889633;29;20393;-64
2021/05/30 04:08:12;;;;;;;2.90;1.15;;;12.50;86.10;;;;;;4891413;29;20488;-65
2021/05/30 04:10:42;;;;;;;2.55;0.80;;;12.50;85.70;;;;;;4893971;29;20049;-65
2021/05/30 04:13:09;;;;;;;2.33;1.20;;;12.60;85.80;;;;;;4889331;29;20108;-66
2021/05/30 04:15:37;;;;;;;2.08;1.42;;;12.60;85.40;;;;;;4894963;29;20040;-65
2021/05/30 04:18:04;;;;;;;2.85;1.15;;;12.70;85.90;;;;;;4892326;29;20068;-65
2021/05/30 04:20:31;;;;;;;3.20;1.20;;;12.70;85.70;;;;;;4892925;29;20040;-65
2021/05/30 04:22:58;;;;;;;1.83;0.85;;;12.70;85.30;;;;;;4892829;29;20131;-65
2021/05/30 04:25:26;;;;;;;2.60;1.13;;;12.80;85.70;;;;;;4872795;29;20041;-64
2021/05/30 04:27:53;;;;;;;1.88;0.75;;;12.90;86.00;;;;;;4900552;29;20061;-64
2021/05/30 04:30:20;;;;;;;2.08;1.00;;;13.00;86.50;;;;;;4892756;29;20060;-65
2021/05/30 04:32:47;;;;;;;1.73;0.60;;;13.00;86.00;;;;;;4896461;29;20040;-65
2021/05/30 04:35:14;;;;;;;2.42;0.93;;;13.20;85.30;;;;;;4894206;29;20817;-65
2021/05/30 04:37:42;;;;;;;2.40;1.00;;;13.30;84.70;;;;;;4891773;29;20049;-65
2021/05/30 04:40:10;;;;;;;2.08;0.77;;;13.40;84.10;;;;;;4877013;29;20076;-65
2021/05/30 04:42:37;;;;;;;1.70;0.90;;;13.50;84.00;;;;;;4894896;29;20516;-65
2021/05/30 04:45:06;;;;;;;1.85;0.93;;;13.60;83.40;;;;;;4896634;29;20052;-65
2021/05/30 04:47:34;;;;;;;2.33;0.70;;;13.70;83.10;;;;;;4886432;29;20049;-65
2021/05/30 04:50:01;;;;;;;2.55;1.20;;;13.70;81.90;;;;;;4893039;29;20060;-65
2021/05/30 04:52:28;;;;;;;2.88;0.88;;;13.80;81.70;;;;;;4891170;29;20037;-65
2021/05/30 04:54:55;;;;;;;2.22;0.70;;;13.80;81.80;;;;;;4895798;29;20044;-64
2021/05/30 04:57:22;;;;;;;2.10;0.75;;;13.80;81.00;;;;;;4896662;29;20041;-65
2021/05/30 04:59:49;;;;;;;2.88;1.10;;;13.80;81.00;;;;;;4892433;29;20056;-65
2021/05/30 05:02:16;;;;;;;2.42;0.80;;;13.90;81.40;;;;;;4877296;29;20068;-65
2021/05/30 05:04:43;;;;;;;2.33;1.23;;;13.90;81.50;;;;;;4891703;29;20053;-65
2021/05/30 05:07:10;;;;;;;2.53;1.00;;;14.00;82.00;;;;;;4893270;29;20104;-65
2021/05/30 05:09:37;;;;;;;1.55;0.80;;;14.00;81.90;;;;;;4882240;29;20044;-65
2021/05/30 05:12:04;;;;;;;2.15;0.80;;;14.10;82.10;;;;;;4873336;29;20103;-65
2021/05/30 05:14:31;;;;;;;1.67;0.70;;;14.10;82.50;;;;;;4893981;29;20043;-64
2021/05/30 05:16:58;;;;;;;2.25;0.88;;;14.20;81.00;;;;;;4894727;29;20040;-65
2021/05/30 05:19:25;;;;;;;2.15;0.60;;;14.10;81.10;;;;;;4894799;29;20096;-65
2021/05/30 05:21:52;;;;;;;1.60;0.60;;;14.20;80.90;;;;;;4894095;29;20060;-65
2021/05/30 05:24:19;;;;;;;1.52;0.80;;;14.20;80.70;;;;;;4896514;29;20041;-65
2021/05/30 05:26:46;;;;;;;1.25;0.50;;;14.20;80.00;;;;;;4894837;29;20113;-65
2021/05/30 05:29:13;;;;;;;1.58;0.52;;;14.20;78.80;;;;;;4894002;29;20037;-65
2021/05/30 05:31:40;;;;;;;3.30;0.82;;;14.30;79.00;;;;;;4894406;29;20044;-66
2021/05/30 05:34:07;;;;;;;1.40;0.30;;;14.30;78.70;;;;;;4890699;29;20109;-65
2021/05/30 05:36:34;;;;;;;1.73;0.77;;;14.30;78.90;;;;;;4890607;29;20060;-65
2021/05/30 05:39:03;;;;;;;2.60;0.88;;;14.50;78.60;;;;;;4893802;29;20052;-65
2021/05/30 05:41:31;;;;;;;1.75;0.70;;;14.50;79.60;;;;;;4890899;29;20044;-66
2021/05/30 05:43:58;;;;;;;1.95;0.50;;;14.60;79.20;;;;;;4892042;29;20552;-65
2021/05/30 05:46:27;;;;;;;1.63;0.50;;;14.70;79.40;;;;;;4892837;29;20048;-65
2021/05/30 05:48:54;;;;;;;2.35;0.50;;;14.70;78.30;;;;;;4894065;29;20974;-65
2021/05/30 05:51:21;;;;;;;1.80;0.38;;;14.70;76.90;;;;;;4893953;29;20127;-65
2021/05/30 05:53:48;;;;;;;2.22;0.50;;;14.70;77.90;;;;;;4893067;29;20048;-65
2021/05/30 05:56:15;;;;;;;1.83;0.70;;;14.80;78.10;;;;;;4894181;29;20647;-65
2021/05/30 05:58:42;;;;;;;2.05;0.77;;;14.80;77.00;;;;;;4895312;29;20071;-65
2021/05/30 06:01:10;;;;;;;0.93;0.35;;;14.90;75.60;;;;;;4901883;29;20141;-65
2021/05/30 06:03:37;;;;;;;1.27;0.75;;;14.90;75.90;;;;;;4886935;29;20084;-64
2021/05/30 06:06:04;;;;;;;1.00;0.45;;;15.00;75.00;;;;;;4891805;29;20060;-65
2021/05/30 06:08:32;;;;;;;1.92;0.73;;;15.10;74.40;;;;;;4898133;29;20032;-65
2021/05/30 06:10:59;;;;;;;1.60;0.50;;;15.10;74.80;;;;;;4893123;29;20091;-65
2021/05/30 06:13:26;;;;;;;1.42;0.47;;;15.10;75.00;;;;;;4891978;29;20450;-65
2021/05/30 06:15:53;;;;;;;0.73;0.40;;;15.20;74.20;;;;;;4896510;29;20049;-65
2021/05/30 06:18:23;;;;;;;2.80;0.60;;;15.20;74.40;;;;;;4903134;29;20048;-65
2021/05/30 06:20:50;;;;;;;1.30;0.50;;;15.30;74.50;;;;;;4898872;29;20032;-65
2021/05/30 06:23:17;;;;;;;2.33;0.80;;;15.30;73.70;;;;;;4899616;29;20041;-65
2021/05/30 06:25:45;;;;;;;2.42;0.63;;;15.40;74.50;;;;;;4899281;29;20040;-65
2021/05/30 06:28:12;;;;;;;2.53;0.60;;;15.40;73.70;;;;;;4886494;29;20044;-65
2021/05/30 06:30:41;;;;;;;1.88;0.65;;;15.50;73.70;;;;;;4896041;29;20393;-64
2021/05/30 06:33:09;;;;;;;2.83;0.45;;;15.50;72.50;;;;;;4903610;29;20433;-65
2021/05/30 06:35:42;;;;;;;1.17;0.35;;;15.60;72.80;;;;;;4877830;29;20052;-65
2021/05/30 06:38:10;;;;;;;3.13;0.70;;;15.60;72.60;;;;;;4914367;29;20672;-64
2021/05/30 06:40:39;;;;;;;1.58;0.80;;;15.60;72.50;;;;;;4897546;29;20044;-65
2021/05/30 06:43:09;;;;;;;1.40;0.47;;;15.70;73.20;;;;;;4896562;29;20484;-65
2021/05/30 06:45:36;;;;;;;1.27;0.45;;;15.70;73.10;;;;;;4897563;29;20325;-65
2021/05/30 06:48:04;;;;;;;2.35;0.63;;;15.80;72.30;;;;;;4889933;29;20488;-65
2021/05/30 06:50:32;;;;;;;1.45;0.45;;;15.90;72.90;;;;;;4896632;29;20060;-65
2021/05/30 06:52:59;;;;;;;1.30;0.40;;;15.90;72.90;;;;;;4875697;29;20108;-65
2021/05/30 06:55:26;;;;;;;1.65;0.77;;;16.00;72.70;;;;;;4905085;29;20143;-65
2021/05/30 06:57:53;;;;;;;2.72;0.57;;;15.90;72.30;;;;;;4904253;29;20076;-65
2021/05/30 07:00:20;;;;;;;1.63;0.40;;;16.00;72.70;;;;;;4895461;29;20059;-65
2021/05/30 07:02:49;;;;;;;1.55;0.50;;;16.00;70.80;;;;;;4899777;29;20439;-65
2021/05/30 07:05:18;;;;;;;1.77;0.80;;;15.90;70.90;;;;;;4890736;29;20052;-65
2021/05/30 07:07:45;;;;;;;2.53;0.63;;;15.90;71.50;;;;;;4892907;29;20079;-65
2021/05/30 07:10:14;;;;;;;2.00;0.40;;;15.90;71.10;;;;;;4896720;29;20040;-65
2021/05/30 07:12:41;;;;;;;2.42;0.77;;;15.80;70.90;;;;;;4889683;29;20219;-65
2021/05/30 07:15:09;;;;;;;2.03;0.70;;;15.80;71.50;;;;;;4896535;29;20824;-65
2021/05/30 07:17:37;;;;;;;1.67;0.50;;;15.70;71.50;;;;;;4901442;29;20117;-65
2021/05/30 07:20:07;;;;;;;1.30;0.43;;;15.70;73.30;;;;;;4897049;29;20044;-65
2021/05/30 07:22:34;;;;;;;1.45;0.40;;;15.80;72.90;;;;;;4897950;29;20684;-65
2021/05/30 07:25:01;;;;;;;2.28;0.88;;;15.80;72.10;;;;;;4895217;29;20045;-65
2021/05/30 07:27:28;;;;;;;1.98;0.60;;;15.80;71.70;;;;;;4894616;29;20044;-65
2021/05/30 07:29:55;;;;;;;1.20;0.40;;;15.90;73.50;;;;;;4896957;29;20112;-65
2021/05/30 07:32:22;;;;;;;1.75;0.50;;;16.00;73.90;;;;;;4896632;29;20063;-65
2021/05/30 07:34:49;;;;;;;3.50;0.88;;;16.00;72.40;;;;;;4895859;29;20048;-65
2021/05/30 07:37:16;;;;;;;2.35;1.08;;;16.10;71.70;;;;;;4894520;29;20045;-65
2021/05/30 07:39:43;;;;;;;1.45;0.80;;;16.20;72.00;;;;;;4896629;29;20052;-66
2021/05/30 07:42:10;;;;;;;2.42;0.98;;;16.20;72.70;;;;;;4886169;29;20121;-65
2021/05/30 07:44:37;;;;;;;1.80;0.60;;;16.30;71.50;;;;;;4894842;29;20429;-64
2021/05/30 07:47:05;;;;;;;1.70;0.50;;;16.30;71.40;;;;;;4894434;29;20531;-65
2021/05/30 07:49:33;;;;;;;1.40;0.68;;;16.30;73.70;;;;;;4898162;29;20049;-65
2021/05/30 07:52:01;;;;;;;7.28;2.50;;;16.40;72.60;;;;;;4893340;29;20123;-66
2021/05/30 07:54:28;;;;;;;1.73;0.63;;;16.50;73.00;;;;;;4901710;29;20036;-65
2021/05/30 07:56:55;;;;;;;2.08;0.60;;;16.50;70.20;;;;;;4901313;29;20067;-65
2021/05/30 07:59:22;;;;;;;1.65;0.70;;;16.50;71.10;;;;;;4898267;29;20108;-66
2021/05/30 08:01:49;;;;;;;1.52;0.75;;;16.60;70.50;;;;;;4891633;29;20047;-65
2021/05/30 08:04:16;;;;;;;1.05;0.43;;;16.60;70.50;;;;;;4893682;29;20128;-63
2021/05/30 08:06:45;;;;;;;1.65;0.32;;;16.60;69.30;;;;;;4893680;29;20047;-63
2021/05/30 08:09:12;;;;;;;8.63;0.60;;;16.60;69.10;;;;;;4894276;29;20048;-63
2021/05/30 08:11:39;;;;;;;1.50;0.47;;;16.60;67.10;;;;;;4889996;29;20571;-63
2021/05/30 08:14:06;;;;;;;1.90;0.52;;;16.70;66.90;;;;;;4895427;29;20064;-63
2021/05/30 08:16:43;;;;;;;1.63;0.43;;;16.70;66.40;;;;;;4896302;29;20445;-63
2021/05/30 08:19:12;;;;;;;3.42;0.60;;;16.70;67.40;;;;;;4894374;29;20782;-63
2021/05/30 08:21:40;;;;;;;1.27;0.63;;;16.80;66.20;;;;;;4893259;29;20047;-62
2021/05/30 08:24:07;;;;;;;1.63;0.65;;;16.80;67.70;;;;;;4893300;29;20040;-63
2021/05/30 08:26:50;;;;;;;1.33;0.45;;;16.90;66.00;;;;;;4894101;29;20056;-63
2021/05/30 08:29:18;;;;;;;2.25;0.70;;;17.00;67.00;;;;;;4896734;29;20420;-66
2021/05/30 08:31:45;;;;;;;0.80;0.30;;;17.10;67.80;;;;;;4902494;29;20037;-64
2021/05/30 08:34:12;;;;;;;0.90;0.40;;;17.20;67.60;;;;;;4900439;29;20080;-63
2021/05/30 08:36:40;;;;;;;2.17;0.40;;;17.20;64.00;;;;;;4894905;29;20049;-64
2021/05/30 08:39:08;;;;;;;1.15;0.40;;;17.30;66.90;;;;;;4908279;29;20091;-66
2021/05/30 08:41:38;;;;;;;2.88;0.50;;;17.50;63.90;;;;;;4895187;29;20048;-66
2021/05/30 08:44:06;;;;;;;2.15;0.52;;;17.50;61.80;;;;;;4882570;29;20048;-63
2021/05/30 08:46:33;;;;;;;1.63;0.40;;;17.50;63.10;;;;;;4891839;29;20500;-63
2021/05/30 08:49:01;;;;;;;1.38;0.38;;;17.60;62.50;;;;;;4901226;29;20052;-63
2021/05/30 08:51:28;;;;;;;3.05;0.60;;;17.60;60.40;;;;;;4891354;29;20041;-63
2021/05/30 08:53:56;;;;;;;2.15;0.50;;;17.50;62.50;;;;;;4879271;29;20056;-63
2021/05/30 08:56:23;;;;;;;1.55;0.57;;;17.50;63.50;;;;;;4890230;29;20651;-63
2021/05/30 08:58:50;;;;;;;2.92;0.40;;;17.50;64.80;;;;;;4895576;29;20036;-63
2021/05/30 09:01:22;;;;;;;1.63;0.60;;;17.70;66.80;;;;;;4889366;29;20045;-63
2021/05/30 09:03:54;;;;;;;2.63;0.70;;;17.70;63.60;;;;;;4890749;29;20535;-63
2021/05/30 09:06:23;;;;;;;0.85;0.30;;;17.70;63.40;;;;;;4896419;29;20045;-63
2021/05/30 09:08:53;;;;;;;2.25;0.60;;;17.70;65.40;;;;;;4895683;29;20044;-63
2021/05/30 09:11:48;;;;;;;1.02;0.30;;;17.80;64.40;;;;;;4893218;29;20037;-63
2021/05/30 09:14:25;;;;;;;2.15;0.65;;;17.90;65.20;;;;;;4888567;29;20064;-63
2021/05/30 09:16:59;;;;;;;1.35;0.43;;;17.90;64.90;;;;;;4878192;29;20057;-63
2021/05/30 09:19:46;;;;;;;7.30;0.98;;;18.00;64.10;;;;;;4894074;29;20542;-63
2021/05/30 09:22:25;;;;;;;1.42;0.50;;;18.10;65.10;;;;;;4885371;29;20048;-63
2021/05/30 09:25:04;;;;;;;0.90;0.30;;;18.20;63.30;;;;;;4888346;29;20083;-63
2021/05/30 09:27:58;;;;;;;3.22;0.70;;;18.20;63.20;;;;;;4881280;29;20059;-63
2021/05/30 09:30:42;;;;;;;1.13;0.40;;;18.30;63.70;;;;;;4899943;29;20049;-64
2021/05/30 09:33:14;;;;;;;1.80;0.50;;;18.30;61.00;;;;;;4889738;29;20516;-63
2021/05/30 09:35:52;;;;;;;2.25;0.57;;;18.30;61.70;;;;;;4895975;29;20051;-63
2021/05/30 09:38:27;;;;;;;1.23;0.40;;;18.30;60.60;;;;;;4892352;29;20048;-64
2021/05/30 09:40:57;;;;;;;2.75;0.68;;;18.30;60.70;;;;;;4890181;29;20065;-63
2021/05/30 09:43:27;;;;;;;14.25;1.65;;;18.40;61.30;;;;;;4883460;29;20110;-63
2021/05/30 09:46:01;;;;;;;1.10;0.40;;;18.40;60.60;;;;;;4904115;29;20508;-63
2021/05/30 09:48:28;;;;;;;3.72;0.35;;;18.50;60.10;;;;;;4884903;29;20096;-63
2021/05/30 09:51:07;;;;;;;1.52;0.50;;;18.50;61.60;;;;;;4894673;29;20063;-63
2021/05/30 09:53:43;;;;;;;4.20;0.85;;;18.50;61.30;;;;;;4884440;29;20049;-63
2021/05/30 09:56:36;;;;;;;2.70;0.77;;;18.50;61.50;;;;;;4895484;29;20052;-63
2021/05/30 09:59:08;;;;;;;1.75;0.70;;;18.50;63.80;;;;;;4895617;29;20496;-63
2021/05/30 10:01:57;;;;;;;0.95;0.40;;;18.50;65.50;;;;;;4888773;29;20044;-63
2021/05/30 10:04:37;;;;;;;3.83;0.50;;;18.60;64.20;;;;;;4895182;29;20053;-66
2021/05/30 10:07:05;;;;;;;3.53;1.50;;;18.60;60.80;;;;;;4893362;29;20488;-63
2021/05/30 10:09:33;;;;;;;1.23;0.50;;;18.60;63.50;;;;;;4891506;29;20174;-63
2021/05/30 10:12:00;;;;;;;1.33;0.30;;;18.60;65.00;;;;;;4884055;29;20409;-63
2021/05/30 10:14:28;;;;;;;0.85;0.43;;;18.70;63.70;;;;;;4891712;29;20167;-63
2021/05/30 10:16:55;;;;;;;2.47;0.30;;;18.70;62.80;;;;;;4889701;29;20093;-63
2021/05/30 10:19:31;;;;;;;1.42;0.30;;;18.80;62.40;;;;;;4894769;29;20112;-64
2021/05/30 10:22:00;;;;;;;4.43;0.60;;;18.70;61.30;;;;;;4889275;29;20157;-63
2021/05/30 10:24:29;;;;;;;3.42;0.68;;;18.70;61.80;;;;;;4883763;29;20041;-64
2021/05/30 10:27:16;;;;;;;1.02;0.30;;;18.60;61.50;;;;;;4893232;29;20052;-64
2021/05/30 10:30:15;;;;;;;1.15;0.57;;;18.60;62.20;;;;;;4901381;29;20782;-64
2021/05/30 10:32:48;;;;;;;1.48;0.30;;;18.70;62.40;;;;;;4890011;29;20045;-64
2021/05/30 10:35:25;;;;;;;2.35;0.40;;;18.70;61.20;;;;;;4891296;29;20044;-65
2021/05/30 10:38:06;;;;;;;0.80;0.30;;;18.80;59.60;;;;;;4891781;29;20152;-65
2021/05/30 10:40:36;;;;;;;3.22;0.40;;;18.90;58.10;;;;;;4874674;29;20045;-64
2021/05/30 10:43:09;;;;;;;1.63;0.60;;;18.90;57.90;;;;;;4890743;29;20068;-64
2021/05/30 10:45:42;;;;;;;1.42;0.38;;;19.00;59.10;;;;;;4894369;29;20151;-64
2021/05/30 10:48:13;;;;;;;1.65;0.40;;;19.00;59.90;;;;;;4891242;29;20056;-63
2021/05/30 10:53:47;;;;;;;0.63;0.30;;;18.90;60.20;;;;;;4884211;29;20104;-63
2021/05/30 10:56:24;;;;;;;3.95;0.40;;;18.80;60.60;;;;;;4899989;29;20052;-64
2021/05/30 10:59:03;;;;;;;1.25;0.40;;;18.70;61.00;;;;;;4894222;29;20055;-63
2021/05/30 11:01:34;;;;;;;1.58;0.40;;;18.70;60.00;;;;;;4893477;29;20040;-63
2021/05/30 11:04:30;;;;;;;0.90;0.40;;;18.60;60.70;;;;;;4899298;29;20060;-63
2021/05/30 11:07:04;;;;;;;1.88;0.50;;;18.60;61.90;;;;;;4890403;29;20048;-64
2021/05/30 11:09:50;;;;;;;0.55;0.30;;;18.60;62.20;;;;;;4888054;29;20667;-63
2021/05/30 11:12:33;;;;;;;0.77;0.40;;;18.60;61.70;;;;;;4892960;29;20064;-63
2021/05/30 11:15:10;;;;;;;2.20;0.30;;;18.60;61.60;;;;;;4893640;29;20041;-63
2021/05/30 11:17:40;;;;;;;0.85;0.30;;;18.60;60.00;;;;;;4896723;29;20044;-63
2021/05/30 11:20:20;;;;;;;0.88;0.38;;;18.70;59.20;;;;;;4893385;29;20048;-63
2021/05/30 11:22:49;;;;;;;2.42;0.40;;;18.70;58.80;;;;;;4903962;29;20720;-63
2021/05/30 11:25:19;;;;;;;1.75;0.60;;;18.80;61.10;;;;;;4892409;29;20079;-63
2021/05/30 11:27:58;;;;;;;1.08;0.40;;;18.80;59.50;;;;;;4890883;29;20049;-63
2021/05/30 11:30:43;;;;;;;1.88;0.28;;;18.80;60.30;;;;;;4893621;29;20051;-63
2021/05/30 11:33:21;;;;;;;0.75;0.30;;;18.80;60.80;;;;;;4893409;29;20054;-63
2021/05/30 11:35:50;;;;;;;0.63;0.30;;;18.80;59.80;;;;;;4885607;29;20044;-63
2021/05/30 11:38:17;;;;;;;0.77;0.32;;;18.80;61.00;;;;;;4891147;29;20077;-64
2021/05/30 11:40:45;;;;;;;0.85;0.30;;;18.80;60.20;;;;;;4889352;29;20088;-63
2021/05/30 11:43:13;;;;;;;1.50;0.40;;;18.70;60.20;;;;;;4888532;29;20063;-66
2021/05/30 11:45:41;;;;;;;0.93;0.47;;;18.70;59.00;;;;;;4887945;29;20052;-64
2021/05/30 11:48:13;;;;;;;1.40;0.55;;;18.80;60.30;;;;;;4892865;29;20107;-68
2021/05/30 11:50:50;;;;;;;1.85;0.38;;;18.90;62.30;;;;;;4909543;29;20048;-64
2021/05/30 11:53:28;;;;;;;1.10;0.38;;;19.10;63.10;;;;;;4892175;29;20083;-64
2021/05/30 11:55:57;;;;;;;0.73;0.30;;;19.30;60.20;;;;;;4881959;29;20053;-68
2021/05/30 11:58:25;;;;;;;0.80;0.30;;;19.60;60.60;;;;;;4875954;29;20060;-68
2021/05/30 12:01:01;;;;;;;1.60;0.38;;;19.80;60.80;;;;;;4893238;29;20145;-68
2021/05/30 12:03:30;;;;;;;2.42;0.40;;;19.70;59.30;;;;;;4888859;29;20048;-64
2021/05/30 12:06:02;;;;;;;1.48;0.30;;;19.60;59.60;;;;;;4889267;29;20048;-64
2021/05/30 12:08:30;;;;;;;1.48;0.30;;;19.50;58.90;;;;;;4873451;29;20052;-64
2021/05/30 12:11:00;;;;;;;2.05;0.20;;;19.70;59.90;;;;;;4893867;29;20048;-64
2021/05/30 12:13:36;;;;;;;1.13;0.57;;;20.50;57.70;;;;;;4897606;29;20036;-64
2021/05/30 12:16:18;;;;;;;0.65;0.30;;;21.70;54.70;;;;;;4889316;29;20048;-64
2021/05/30 12:18:56;;;;;;;1.70;0.20;;;22.40;51.30;;;;;;4904720;29;20511;-64
2021/05/30 12:21:37;;;;;;;1.10;0.40;;;22.60;51.00;;;;;;4889700;29;20052;-64
2021/05/30 12:24:07;;;;;;;2.15;0.45;;;23.00;49.50;;;;;;4888958;29;20526;-64
2021/05/30 12:26:34;;;;;;;1.00;0.30;;;23.00;49.50;;;;;;4889720;29;20111;-64
2021/05/30 12:29:03;;;;;;;1.13;0.20;;;22.70;50.60;;;;;;4891058;29;20062;-64
2021/05/30 12:31:30;;;;;;;1.25;0.20;;;22.50;49.60;;;;;;4890479;29;20032;-64
2021/05/30 12:34:06;;;;;;;2.40;0.30;;;22.20;50.10;;;;;;4892057;29;20112;-65
2021/05/30 12:36:36;;;;;;;1.40;0.30;;;21.70;52.30;;;;;;4889563;29;20071;-64
2021/05/30 12:39:15;;;;;;;1.30;0.22;;;21.30;54.60;;;;;;4892455;29;20063;-64
2021/05/30 12:41:47;;;;;;;0.73;0.30;;;20.90;55.30;;;;;;4882485;29;20056;-64
2021/05/30 12:44:23;;;;;;;0.95;0.30;;;20.20;55.30;;;;;;4888756;29;20044;-63
2021/05/30 12:46:58;;;;;;;1.75;0.50;;;19.70;56.60;;;;;;4886556;29;20064;-64
2021/05/30 12:49:26;;;;;;;1.38;0.30;;;19.90;56.70;;;;;;4871110;29;20053;-64
2021/05/30 12:52:07;;;;;;;1.58;0.40;;;20.40;57.30;;;;;;4884178;29;20057;-64
2021/05/30 12:54:39;;;;;;;0.85;0.30;;;21.20;56.30;;;;;;4883350;29;20063;-64
2021/05/30 12:57:08;;;;;;;0.93;0.50;;;21.80;55.60;;;;;;4884683;29;20051;-64
2021/05/30 12:59:47;;;;;;;1.70;0.57;;;22.30;53.90;;;;;;4889916;29;20055;-64
2021/05/30 13:02:15;;;;;;;3.13;0.55;;;22.70;52.90;;;;;;4890132;29;20454;-64
2021/05/30 13:04:43;;;;;;;3.30;0.50;;;23.10;53.20;;;;;;4891944;29;20049;-65